createdAt,value
2022-12-25T00:01:44.976Z,20.30
2022-12-25T00:11:49.142Z,13.70
2022-12-25T00:21:52.081Z,16.40
2022-12-25T00:31:56.262Z,16.10
2022-12-25T00:42:16.575Z,22.02
2022-12-25T00:52:20.626Z,24.47
2022-12-25T01:02:26.551Z,19.35
2022-12-25T01:12:31.465Z,21.90
2022-12-25T01:22:34.368Z,30.92
2022-12-25T01:32:38.414Z,14.05
2022-12-25T01:42:41.128Z,26.77
2022-12-25T01:52:45.888Z,27.60
2022-12-25T02:02:49.901Z,21.42
2022-12-25T02:12:54.338Z,33.55
2022-12-25T02:23:10.444Z,16.73
2022-12-25T02:33:36.940Z,29.45
2022-12-25T02:44:01.420Z,25.20
2022-12-25T02:54:43.104Z,25.17
2022-12-25T03:05:03.617Z,17.80
2022-12-25T03:15:28.408Z,20.50
2022-12-25T03:25:48.710Z,22.75
2022-12-25T03:36:04.153Z,19.30
2022-12-25T03:46:32.727Z,22.88
2022-12-25T03:56:56.815Z,21.40
2022-12-25T04:07:31.731Z,31.38
2022-12-25T04:17:53.378Z,29.48
2022-12-25T04:28:19.745Z,37.80
2022-12-25T04:38:24.512Z,32.35
2022-12-25T04:48:28.573Z,28.60
2022-12-25T04:58:34.771Z,24.48
2022-12-25T05:08:37.999Z,27.05
2022-12-25T05:18:42.166Z,26.75
2022-12-25T05:28:44.944Z,28.75
2022-12-25T05:38:49.171Z,27.88
2022-12-25T05:48:51.951Z,28.48
2022-12-25T05:58:56.113Z,30.45
2022-12-25T06:08:58.853Z,36.78
2022-12-25T06:19:02.909Z,32.45
2022-12-25T06:29:06.007Z,29.17
2022-12-25T06:39:11.139Z,35.85
2022-12-25T06:49:13.972Z,31.77
2022-12-25T06:59:18.079Z,39.60
2022-12-25T07:09:20.842Z,45.88
2022-12-25T07:19:25.946Z,49.30
2022-12-25T07:29:28.659Z,33.78
2022-12-25T07:39:34.023Z,37.53
2022-12-25T07:49:37.060Z,40.88
2022-12-25T07:59:41.128Z,33.65
2022-12-25T08:09:43.846Z,22.90
2022-12-25T08:19:47.877Z,39.85
2022-12-25T08:29:50.735Z,33.50
2022-12-25T08:39:54.856Z,26.45
2022-12-25T08:49:57.603Z,30.67
2022-12-25T09:00:01.785Z,20.17
2022-12-25T09:10:04.744Z,26.73
2022-12-25T09:20:09.619Z,24.02
2022-12-25T09:30:12.901Z,18.85
2022-12-25T09:40:19.881Z,26.92
2022-12-25T09:50:29.421Z,25.98
2022-12-25T10:00:38.452Z,19.48
2022-12-25T10:10:50.911Z,21.88
2022-12-25T10:20:57.203Z,24.40
2022-12-25T10:31:03.483Z,24.88
2022-12-25T10:41:19.884Z,29.02
2022-12-25T10:51:31.456Z,15.35
2022-12-25T11:01:35.595Z,13.82
2022-12-25T11:11:40.357Z,18.42
2022-12-25T11:21:52.416Z,16.83
2022-12-25T11:31:58.204Z,20.48
2022-12-25T11:42:06.790Z,21.55
2022-12-25T11:52:12.815Z,17.30
2022-12-25T12:02:27.431Z,22.00
2022-12-25T12:12:38.120Z,21.80
2022-12-25T12:22:51.414Z,16.40
2022-12-25T12:32:56.160Z,15.30
2022-12-25T12:43:13.348Z,41.42
2022-12-25T12:53:36.583Z,15.75
2022-12-25T13:04:19.301Z,22.52
2022-12-25T13:14:27.733Z,15.45
2022-12-25T13:24:36.416Z,12.15
2022-12-25T13:34:43.665Z,12.95
2022-12-25T13:44:53.081Z,15.63
2022-12-25T13:54:58.866Z,15.32
2022-12-25T14:05:03.352Z,12.90
2022-12-25T14:15:07.502Z,11.73
2022-12-25T14:25:17.231Z,11.13
2022-12-25T14:35:23.639Z,19.33
2022-12-25T14:45:31.105Z,12.35
2022-12-25T14:55:33.869Z,12.38
2022-12-25T15:05:40.209Z,14.60
2022-12-25T15:15:49.717Z,18.35
2022-12-25T15:25:53.899Z,20.88
2022-12-25T15:35:56.855Z,13.50
2022-12-25T15:46:01.034Z,11.52
2022-12-25T15:56:03.896Z,15.27
2022-12-25T16:06:11.451Z,9.25
2022-12-25T16:16:14.290Z,12.18
2022-12-25T16:26:18.630Z,13.50
2022-12-25T16:36:26.742Z,12.63
2022-12-25T16:46:31.360Z,13.98
2022-12-25T16:56:36.438Z,22.30
2022-12-25T17:06:40.618Z,15.48
2022-12-25T17:16:43.441Z,19.50
2022-12-25T17:26:48.099Z,13.82
2022-12-25T17:36:52.358Z,15.90
2022-12-25T17:46:56.452Z,16.45
2022-12-25T17:56:59.167Z,18.55
2022-12-25T18:07:04.145Z,22.55
2022-12-25T18:17:07.136Z,22.42
2022-12-25T18:27:11.387Z,22.98
2022-12-25T18:37:14.118Z,20.92
2022-12-25T18:47:18.366Z,26.70
2022-12-25T18:58:10.180Z,21.52
2022-12-25T19:08:14.652Z,21.65
2022-12-25T19:18:17.524Z,21.75
2022-12-25T19:28:21.635Z,23.67
2022-12-25T19:38:24.376Z,25.92
2022-12-25T19:48:29.123Z,32.53
2022-12-25T19:58:31.848Z,35.33
2022-12-25T20:08:36.004Z,35.15
2022-12-25T20:18:39.369Z,35.58
2022-12-25T20:28:44.427Z,37.97
2022-12-25T20:38:47.674Z,29.92
2022-12-25T20:48:51.930Z,29.15
2022-12-25T20:58:56.190Z,42.60
2022-12-25T21:09:00.741Z,29.52
2022-12-25T21:19:05.145Z,25.77
2022-12-25T21:29:10.619Z,46.25
2022-12-25T21:39:14.440Z,46.47
2022-12-25T21:49:38.613Z,52.80
2022-12-25T21:59:41.577Z,90.20
2022-12-25T22:09:47.227Z,126.00
2022-12-25T22:19:50.084Z,110.47
2022-12-25T22:29:54.374Z,225.50
2022-12-25T22:39:57.229Z,256.73
2022-12-25T22:50:01.336Z,60.55
2022-12-25T23:00:05.971Z,118.43
2022-12-25T23:10:11.378Z,81.10
2022-12-25T23:20:33.112Z,70.63
2022-12-25T23:30:37.555Z,138.57
2022-12-25T23:40:40.471Z,44.75
2022-12-25T23:50:44.855Z,49.50
